Time,TemperatureF,DewpointF,PressureIn,WindDirection,WindDirectionDegrees,WindSpeedMPH,WindSpeedGustMPH,Humidity,HourlyPrecipIn,Conditions,Clouds,dailyrainin,SoftwareType,DateUTC
2013-01-18 00:11:00,32.3,32.0,30.17,NE,34,0.0,0.0,97,0.01,,,0.00,weatherlink.com 1.10,2013-01-18 05:11:00,
2013-01-18 00:26:00,32.2,32.0,30.18,NE,34,0.0,0.0,97,0.01,,,0.00,weatherlink.com 1.10,2013-01-18 05:26:00,
2013-01-18 00:41:00,32.1,31.0,30.18,NE,34,0.0,0.0,97,0.01,,,0.00,weatherlink.com 1.10,2013-01-18 05:41:00,
2013-01-18 00:56:00,32.3,32.0,30.19,NE,34,0.0,0.0,97,0.01,,,0.00,weatherlink.com 1.10,2013-01-18 05:56:00,
2013-01-18 01:11:00,32.5,32.0,30.20,NE,34,0.0,0.0,97,0.00,,,0.00,weatherlink.com 1.10,2013-01-18 06:11:00,
2013-01-18 01:26:00,32.6,32.0,30.20,NE,34,0.0,0.0,96,0.00,,,0.00,weatherlink.com 1.10,2013-01-18 06:26:00,
2013-01-18 01:41:00,32.6,31.0,30.22,NE,34,0.0,0.0,94,0.00,,,0.00,weatherlink.com 1.10,2013-01-18 06:41:00,
2013-01-18 01:56:00,32.8,31.0,30.23,NE,34,0.0,0.0,93,0.00,,,0.00,weatherlink.com 1.10,2013-01-18 06:56:00,
2013-01-18 02:11:00,32.6,31.0,30.23,NE,34,0.0,0.0,92,0.00,,,0.00,weatherlink.com 1.10,2013-01-18 07:11:00,
2013-01-18 02:26:00,32.8,31.0,30.24,NE,34,0.0,0.0,91,0.00,,,0.00,weatherlink.com 1.10,2013-01-18 07:26:00,
2013-01-18 02:41:00,32.5,30.0,30.24,NE,34,0.0,0.0,91,0.00,,,0.00,weatherlink.com 1.10,2013-01-18 07:41:00,
2013-01-18 02:56:00,32.3,30.0,30.25,NE,34,0.0,0.0,90,0.00,,,0.00,weatherlink.com 1.10,2013-01-18 07:56:00,
2013-01-18 03:11:00,32.5,29.0,30.26,NE,34,0.0,0.0,88,0.00,,,0.00,weatherlink.com 1.10,2013-01-18 08:11:00,
2013-01-18 03:26:00,32.3,29.0,30.25,NE,34,0.0,0.0,88,0.00,,,0.00,weatherlink.com 1.10,2013-01-18 08:26:00,
2013-01-18 03:41:00,32.2,29.0,30.26,NE,34,0.0,0.0,87,0.00,,,0.00,weatherlink.com 1.10,2013-01-18 08:41:00,
2013-01-18 03:56:00,32.1,28.0,30.27,NE,34,0.0,0.0,86,0.00,,,0.00,weatherlink.com 1.10,2013-01-18 08:56:00,
2013-01-18 04:11:00,31.9,28.0,30.27,NE,34,0.0,0.0,86,0.00,,,0.00,weatherlink.com 1.10,2013-01-18 09:11:00,
2013-01-18 04:26:00,31.7,28.0,30.27,NE,34,0.0,0.0,86,0.00,,,0.00,weatherlink.com 1.10,2013-01-18 09:26:00,
2013-01-18 04:41:00,31.7,28.0,30.28,NE,34,0.0,0.0,85,0.00,,,0.00,weatherlink.com 1.10,2013-01-18 09:41:00,
2013-01-18 04:56:00,31.3,28.0,30.29,NE,34,0.0,0.0,86,0.00,,,0.00,weatherlink.com 1.10,2013-01-18 09:56:00,
2013-01-18 05:12:00,31.0,28.0,30.29,NE,34,0.0,0.0,87,0.01,,,0.01,weatherlink.com 1.10,2013-01-18 10:12:00,
2013-01-18 05:27:00,30.9,28.0,30.30,NE,34,0.0,0.0,87,0.01,,,0.01,weatherlink.com 1.10,2013-01-18 10:27:00,
2013-01-18 05:42:00,30.8,27.0,30.30,NE,34,0.0,0.0,86,0.01,,,0.01,weatherlink.com 1.10,2013-01-18 10:42:00,
2013-01-18 05:57:00,30.6,27.0,30.30,NE,34,0.0,0.0,86,0.01,,,0.01,weatherlink.com 1.10,2013-01-18 10:57:00,
2013-01-18 06:12:00,30.4,27.0,30.32,NE,34,0.0,0.0,86,0.00,,,0.01,weatherlink.com 1.10,2013-01-18 11:12:00,
2013-01-18 06:27:00,30.2,27.0,30.33,NE,34,0.0,0.0,87,0.00,,,0.01,weatherlink.com 1.10,2013-01-18 11:27:00,
2013-01-18 06:42:00,29.9,27.0,30.33,NE,34,0.0,0.0,88,0.00,,,0.01,weatherlink.com 1.10,2013-01-18 11:42:00,
2013-01-18 06:57:00,29.6,27.0,30.35,NE,34,0.0,0.0,89,0.00,,,0.01,weatherlink.com 1.10,2013-01-18 11:57:00,
2013-01-18 07:12:00,29.4,27.0,30.35,NE,34,0.0,0.0,89,0.00,,,0.01,weatherlink.com 1.10,2013-01-18 12:12:00,
2013-01-18 07:27:00,29.4,27.0,30.35,NE,34,0.0,0.0,89,0.00,,,0.01,weatherlink.com 1.10,2013-01-18 12:27:00,
2013-01-18 07:42:00,29.4,27.0,30.37,NE,34,0.0,0.0,89,0.00,,,0.01,weatherlink.com 1.10,2013-01-18 12:42:00,
2013-01-18 07:57:00,29.2,27.0,30.37,NE,34,0.0,0.0,90,0.00,,,0.01,weatherlink.com 1.10,2013-01-18 12:57:00,
2013-01-18 08:12:00,29.2,27.0,30.39,NE,34,0.0,0.0,91,0.00,,,0.01,weatherlink.com 1.10,2013-01-18 13:12:00,
2013-01-18 08:27:00,30.0,28.0,30.40,NE,51,0.0,0.0,90,0.00,,,0.01,weatherlink.com 1.10,2013-01-18 13:27:00,
2013-01-18 08:42:00,31.2,27.0,30.42,NW,310,0.0,1.0,85,0.00,,,0.01,weatherlink.com 1.10,2013-01-18 13:42:00,
2013-01-18 08:57:00,31.7,27.0,30.43,NW,311,0.0,1.0,84,0.00,,,0.01,weatherlink.com 1.10,2013-01-18 13:57:00,
2013-01-18 09:12:00,32.0,28.0,30.44,WNW,303,2.0,2.0,84,0.00,,,0.01,weatherlink.com 1.10,2013-01-18 14:12:00,
2013-01-18 09:27:00,32.4,28.0,30.45,NW,304,1.0,4.0,83,0.00,,,0.01,weatherlink.com 1.10,2013-01-18 14:27:00,
2013-01-18 09:42:00,32.8,28.0,30.46,NW,317,2.0,2.0,82,0.00,,,0.01,weatherlink.com 1.10,2013-01-18 14:42:00,
2013-01-18 09:57:00,33.3,28.0,30.47,NW,322,1.0,3.0,81,0.00,,,0.01,weatherlink.com 1.10,2013-01-18 14:57:00,
2013-01-18 10:12:00,33.7,28.0,30.48,NW,315,0.0,4.0,80,0.01,,,0.02,weatherlink.com 1.10,2013-01-18 15:12:00,
2013-01-18 10:27:00,34.4,29.0,30.49,NW,306,2.0,4.0,79,0.01,,,0.02,weatherlink.com 1.10,2013-01-18 15:27:00,
2013-01-18 10:42:00,34.8,28.0,30.49,NW,326,1.0,4.0,76,0.02,,,0.03,weatherlink.com 1.10,2013-01-18 15:42:00,
2013-01-18 10:57:00,35.3,28.0,30.49,NW,317,1.0,4.0,74,0.02,,,0.03,weatherlink.com 1.10,2013-01-18 15:57:00,
2013-01-18 11:13:00,36.0,28.0,30.49,NW,306,1.0,3.0,74,0.02,,,0.04,weatherlink.com 1.10,2013-01-18 16:13:00,
2013-01-18 11:28:00,36.2,29.0,30.49,NW,311,1.0,4.0,74,0.04,,,0.06,weatherlink.com 1.10,2013-01-18 16:28:00,
2013-01-18 11:43:00,36.9,29.0,30.50,NW,319,2.0,4.0,73,0.05,,,0.08,weatherlink.com 1.10,2013-01-18 16:43:00,
2013-01-18 11:58:00,36.8,28.0,30.50,West,269,2.0,3.0,70,0.07,,,0.10,weatherlink.com 1.10,2013-01-18 16:58:00,
2013-01-18 12:13:00,37.0,29.0,30.49,SW,232,0.0,4.0,72,0.08,,,0.12,weatherlink.com 1.10,2013-01-18 17:13:00,
2013-01-18 12:28:00,37.3,28.0,30.48,North,11,0.0,3.0,70,0.06,,,0.12,weatherlink.com 1.10,2013-01-18 17:28:00,
2013-01-18 12:43:00,37.8,28.0,30.48,NE,55,0.0,3.0,67,0.06,,,0.14,weatherlink.com 1.10,2013-01-18 17:43:00,
2013-01-18 12:58:00,37.8,27.0,30.48,WNW,302,1.0,5.0,64,0.04,,,0.14,weatherlink.com 1.10,2013-01-18 17:58:00,
2013-01-18 13:13:00,38.5,28.0,30.48,NNE,25,0.0,3.0,66,0.03,,,0.15,weatherlink.com 1.10,2013-01-18 18:13:00,
2013-01-18 13:28:00,38.6,27.0,30.48,NNW,331,1.0,4.0,63,0.04,,,0.16,weatherlink.com 1.10,2013-01-18 18:28:00,
2013-01-18 13:43:00,38.6,27.0,30.48,SW,221,0.0,4.0,63,0.02,,,0.16,weatherlink.com 1.10,2013-01-18 18:43:00,
2013-01-18 13:58:00,39.1,27.0,30.48,North,355,1.0,5.0,63,0.03,,,0.17,weatherlink.com 1.10,2013-01-18 18:58:00,
2013-01-18 14:13:00,39.5,27.0,30.48,West,261,0.0,4.0,62,0.01,,,0.17,weatherlink.com 1.10,2013-01-18 19:13:00,
2013-01-18 14:28:00,39.8,27.0,30.48,WNW,292,2.0,6.0,60,0.02,,,0.18,weatherlink.com 1.10,2013-01-18 19:28:00,
2013-01-18 14:43:00,39.7,27.0,30.49,West,280,3.0,6.0,60,0.02,,,0.18,weatherlink.com 1.10,2013-01-18 19:43:00,
2013-01-18 14:58:00,40.6,26.0,30.48,NW,315,0.0,3.0,57,0.02,,,0.19,weatherlink.com 1.10,2013-01-18 19:58:00,
2013-01-18 15:13:00,40.7,27.0,30.48,North,355,1.0,5.0,58,0.03,,,0.20,weatherlink.com 1.10,2013-01-18 20:13:00,
2013-01-18 15:28:00,41.3,26.0,30.48,NNW,343,2.0,4.0,56,0.02,,,0.20,weatherlink.com 1.10,2013-01-18 20:28:00,
2013-01-18 15:43:00,41.6,26.0,30.48,North,355,1.0,3.0,55,0.03,,,0.21,weatherlink.com 1.10,2013-01-18 20:43:00,
2013-01-18 15:58:00,41.6,27.0,30.49,West,262,0.0,3.0,56,0.03,,,0.22,weatherlink.com 1.10,2013-01-18 20:58:00,
2013-01-18 16:13:00,41.5,27.0,30.49,WNW,290,1.0,2.0,57,0.02,,,0.22,weatherlink.com 1.10,2013-01-18 21:13:00,
2013-01-18 16:28:00,40.8,26.0,30.50,WSW,244,2.0,4.0,55,0.02,,,0.22,weatherlink.com 1.10,2013-01-18 21:28:00,
2013-01-18 16:43:00,40.2,24.0,30.50,NW,314,1.0,4.0,52,0.02,,,0.23,weatherlink.com 1.10,2013-01-18 21:43:00,
2013-01-18 16:58:00,39.7,27.0,30.50,WNW,285,0.0,1.0,60,0.01,,,0.23,weatherlink.com 1.10,2013-01-18 21:58:00,
2013-01-18 17:13:00,39.0,28.0,30.51,NNE,23,0.0,1.0,66,0.01,,,0.23,weatherlink.com 1.10,2013-01-18 22:13:00,
2013-01-18 17:28:00,37.7,28.0,30.51,NNE,23,0.0,1.0,68,0.01,,,0.23,weatherlink.com 1.10,2013-01-18 22:28:00,
2013-01-18 17:43:00,36.9,27.0,30.51,NNE,23,0.0,0.0,67,0.00,,,0.23,weatherlink.com 1.10,2013-01-18 22:43:00,
2013-01-18 17:58:00,35.8,27.0,30.52,NNE,23,0.0,0.0,70,0.00,,,0.23,weatherlink.com 1.10,2013-01-18 22:58:00,
2013-01-18 18:13:00,35.2,27.0,30.52,NNE,23,0.0,0.0,71,0.00,,,0.23,weatherlink.com 1.10,2013-01-18 23:13:00,
2013-01-18 18:28:00,34.6,26.0,30.53,NNE,23,0.0,0.0,72,0.00,,,0.23,weatherlink.com 1.10,2013-01-18 23:28:00,
2013-01-18 18:43:00,34.3,26.0,30.53,North,11,0.0,1.0,72,0.00,,,0.23,weatherlink.com 1.10,2013-01-18 23:43:00,
2013-01-18 18:58:00,34.0,26.0,30.53,North,11,0.0,0.0,71,0.00,,,0.23,weatherlink.com 1.10,2013-01-18 23:58:00,
2013-01-18 19:13:00,33.6,25.0,30.53,North,11,0.0,1.0,72,0.00,,,0.23,weatherlink.com 1.10,2013-01-19 00:13:00,
2013-01-18 19:28:00,33.6,25.0,30.53,North,11,0.0,1.0,72,0.00,,,0.23,weatherlink.com 1.10,2013-01-19 00:28:00,
2013-01-18 19:43:00,33.2,25.0,30.53,North,11,0.0,1.0,73,0.00,,,0.23,weatherlink.com 1.10,2013-01-19 00:43:00,
2013-01-18 19:58:00,32.7,25.0,30.53,North,11,0.0,0.0,74,0.00,,,0.23,weatherlink.com 1.10,2013-01-19 00:58:00,
2013-01-18 20:13:00,32.3,26.0,30.53,North,11,0.0,0.0,76,0.00,,,0.23,weatherlink.com 1.10,2013-01-19 01:13:00,
2013-01-18 20:28:00,32.0,25.0,30.53,North,11,0.0,0.0,75,0.00,,,0.23,weatherlink.com 1.10,2013-01-19 01:28:00,
2013-01-18 20:43:00,31.8,26.0,30.52,North,11,0.0,0.0,80,0.00,,,0.23,weatherlink.com 1.10,2013-01-19 01:43:00,
2013-01-18 20:58:00,31.0,26.0,30.52,North,11,0.0,0.0,82,0.00,,,0.23,weatherlink.com 1.10,2013-01-19 01:58:00,
2013-01-18 21:13:00,30.7,25.0,30.52,North,11,0.0,1.0,78,0.00,,,0.23,weatherlink.com 1.10,2013-01-19 02:13:00,
2013-01-18 21:28:00,30.8,24.0,30.52,North,11,0.0,1.0,77,0.00,,,0.23,weatherlink.com 1.10,2013-01-19 02:28:00,
2013-01-18 21:43:00,31.0,25.0,30.52,North,11,0.0,1.0,77,0.00,,,0.23,weatherlink.com 1.10,2013-01-19 02:43:00,
2013-01-18 21:58:00,31.1,24.0,30.52,North,11,0.0,1.0,76,0.00,,,0.23,weatherlink.com 1.10,2013-01-19 02:58:00,
2013-01-18 22:13:00,31.1,25.0,30.51,ESE,109,0.0,1.0,79,0.00,,,0.23,weatherlink.com 1.10,2013-01-19 03:13:00,
2013-01-18 22:28:00,30.6,24.0,30.51,ENE,67,0.0,1.0,77,0.00,,,0.23,weatherlink.com 1.10,2013-01-19 03:28:00,
2013-01-18 22:43:00,30.2,25.0,30.51,ESE,123,0.0,2.0,80,0.00,,,0.23,weatherlink.com 1.10,2013-01-19 03:43:00,
2013-01-18 22:58:00,29.4,25.0,30.50,ESE,104,0.0,1.0,84,0.00,,,0.23,weatherlink.com 1.10,2013-01-19 03:58:00,
2013-01-18 23:13:00,28.9,25.0,30.50,East,89,0.0,1.0,85,0.00,,,0.23,weatherlink.com 1.10,2013-01-19 04:13:00,
2013-01-18 23:28:00,29.1,25.0,30.50,East,89,0.0,1.0,84,0.00,,,0.23,weatherlink.com 1.10,2013-01-19 04:28:00,
2013-01-18 23:43:00,29.3,25.0,30.50,East,89,0.0,0.0,83,0.00,,,0.23,weatherlink.com 1.10,2013-01-19 04:43:00,
2013-01-18 23:58:00,29.3,24.0,30.49,East,89,0.0,0.0,81,0.00,,,0.23,weatherlink.com 1.10,2013-01-19 04:58:00,